sensor_id;sensor_type;location;lat;lon;timestamp;P1;durP1;ratioP1;P2;durP2;ratioP2
53010;SDS011;42803;55.762;38.084;2023-08-01T00:00:42;14.88;;;6.90;;
53010;SDS011;42803;55.762;38.084;2023-08-01T00:03:13;12.07;;;6.00;;
53010;SDS011;42803;55.762;38.084;2023-08-01T00:05:43;16.15;;;6.30;;
53010;SDS011;42803;55.762;38.084;2023-08-01T00:08:13;11.40;;;6.05;;
53010;SDS011;42803;55.762;38.084;2023-08-01T00:10:42;16.33;;;6.30;;
53010;SDS011;42803;55.762;38.084;2023-08-01T00:13:11;12.48;;;5.95;;
53010;SDS011;42803;55.762;38.084;2023-08-01T00:15:40;16.00;;;6.40;;
53010;SDS011;42803;55.762;38.084;2023-08-01T00:18:28;16.27;;;6.18;;
53010;SDS011;42803;55.762;38.084;2023-08-01T00:20:57;15.85;;;8.63;;
53010;SDS011;42803;55.762;38.084;2023-08-01T00:23:27;16.98;;;9.73;;
53010;SDS011;42803;55.762;38.084;2023-08-01T00:25:56;16.80;;;9.15;;
53010;SDS011;42803;55.762;38.084;2023-08-01T00:28:25;27.17;;;14.80;;
53010;SDS011;42803;55.762;38.084;2023-08-01T00:31:01;28.10;;;17.88;;
53010;SDS011;42803;55.762;38.084;2023-08-01T00:33:32;25.20;;;15.50;;
53010;SDS011;42803;55.762;38.084;2023-08-01T00:36:01;31.00;;;17.25;;
53010;SDS011;42803;55.762;38.084;2023-08-01T00:41:05;20.55;;;10.32;;
53010;SDS011;42803;55.762;38.084;2023-08-01T00:43:34;14.20;;;7.60;;
53010;SDS011;42803;55.762;38.084;2023-08-01T00:46:04;16.75;;;10.23;;
53010;SDS011;42803;55.762;38.084;2023-08-01T00:48:36;17.00;;;10.40;;
53010;SDS011;42803;55.762;38.084;2023-08-01T00:51:05;15.95;;;8.38;;
53010;SDS011;42803;55.762;38.084;2023-08-01T00:53:37;15.07;;;6.85;;
53010;SDS011;42803;55.762;38.084;2023-08-01T00:56:06;13.52;;;7.57;;
53010;SDS011;42803;55.762;38.084;2023-08-01T00:58:35;15.68;;;7.72;;
53010;SDS011;42803;55.762;38.084;2023-08-01T01:01:04;11.52;;;6.30;;
53010;SDS011;42803;55.762;38.084;2023-08-01T01:03:33;17.02;;;5.72;;
53010;SDS011;42803;55.762;38.084;2023-08-01T01:06:06;17.50;;;6.00;;
53010;SDS011;42803;55.762;38.084;2023-08-01T01:08:40;20.00;;;7.07;;
53010;SDS011;42803;55.762;38.084;2023-08-01T01:11:09;18.25;;;6.10;;
53010;SDS011;42803;55.762;38.084;2023-08-01T01:13:38;20.60;;;7.20;;
53010;SDS011;42803;55.762;38.084;2023-08-01T01:16:07;13.68;;;6.65;;
53010;SDS011;42803;55.762;38.084;2023-08-01T01:18:37;17.42;;;6.13;;
53010;SDS011;42803;55.762;38.084;2023-08-01T01:21:08;15.52;;;6.30;;
53010;SDS011;42803;55.762;38.084;2023-08-01T01:23:38;18.73;;;6.57;;
53010;SDS011;42803;55.762;38.084;2023-08-01T01:26:08;18.20;;;5.95;;
53010;SDS011;42803;55.762;38.084;2023-08-01T01:28:38;15.85;;;6.57;;
53010;SDS011;42803;55.762;38.084;2023-08-01T01:31:08;15.13;;;6.68;;
53010;SDS011;42803;55.762;38.084;2023-08-01T01:33:38;15.05;;;6.32;;
53010;SDS011;42803;55.762;38.084;2023-08-01T01:36:08;19.13;;;6.53;;
53010;SDS011;42803;55.762;38.084;2023-08-01T01:38:37;16.48;;;6.88;;
53010;SDS011;42803;55.762;38.084;2023-08-01T01:41:06;20.02;;;7.72;;
53010;SDS011;42803;55.762;38.084;2023-08-01T01:43:35;19.33;;;7.32;;
53010;SDS011;42803;55.762;38.084;2023-08-01T01:46:06;24.17;;;8.02;;
53010;SDS011;42803;55.762;38.084;2023-08-01T01:48:35;19.90;;;6.80;;
53010;SDS011;42803;55.762;38.084;2023-08-01T01:51:04;16.42;;;6.72;;
53010;SDS011;42803;55.762;38.084;2023-08-01T01:53:34;15.32;;;6.82;;
53010;SDS011;42803;55.762;38.084;2023-08-01T01:56:03;15.38;;;6.03;;
53010;SDS011;42803;55.762;38.084;2023-08-01T01:58:32;17.00;;;6.15;;
53010;SDS011;42803;55.762;38.084;2023-08-01T02:01:01;16.73;;;6.53;;
53010;SDS011;42803;55.762;38.084;2023-08-01T02:03:31;20.98;;;6.80;;
53010;SDS011;42803;55.762;38.084;2023-08-01T02:06:00;15.20;;;6.55;;
53010;SDS011;42803;55.762;38.084;2023-08-01T02:08:30;20.08;;;7.05;;
53010;SDS011;42803;55.762;38.084;2023-08-01T02:11:03;23.25;;;6.60;;
53010;SDS011;42803;55.762;38.084;2023-08-01T02:13:32;18.45;;;7.40;;
53010;SDS011;42803;55.762;38.084;2023-08-01T02:16:02;15.73;;;6.28;;
53010;SDS011;42803;55.762;38.084;2023-08-01T02:18:31;13.98;;;5.90;;
53010;SDS011;42803;55.762;38.084;2023-08-01T02:21:00;13.60;;;5.93;;
53010;SDS011;42803;55.762;38.084;2023-08-01T02:23:29;15.75;;;6.80;;
53010;SDS011;42803;55.762;38.084;2023-08-01T02:25:59;11.77;;;6.13;;
53010;SDS011;42803;55.762;38.084;2023-08-01T02:28:30;21.25;;;6.00;;
53010;SDS011;42803;55.762;38.084;2023-08-01T02:30:59;13.65;;;5.40;;
53010;SDS011;42803;55.762;38.084;2023-08-01T02:33:28;13.00;;;4.95;;
53010;SDS011;42803;55.762;38.084;2023-08-01T02:35:57;13.85;;;5.97;;
53010;SDS011;42803;55.762;38.084;2023-08-01T02:38:26;13.88;;;6.22;;
53010;SDS011;42803;55.762;38.084;2023-08-01T02:40:55;20.60;;;5.47;;
53010;SDS011;42803;55.762;38.084;2023-08-01T02:43:25;14.43;;;5.45;;
53010;SDS011;42803;55.762;38.084;2023-08-01T02:45:55;20.10;;;5.72;;
53010;SDS011;42803;55.762;38.084;2023-08-01T02:48:26;13.00;;;5.38;;
53010;SDS011;42803;55.762;38.084;2023-08-01T02:50:56;12.23;;;5.75;;
53010;SDS011;42803;55.762;38.084;2023-08-01T02:53:24;11.38;;;5.10;;
53010;SDS011;42803;55.762;38.084;2023-08-01T02:55:53;14.82;;;6.20;;
53010;SDS011;42803;55.762;38.084;2023-08-01T02:58:22;15.80;;;5.55;;
53010;SDS011;42803;55.762;38.084;2023-08-01T03:00:51;14.45;;;5.93;;
53010;SDS011;42803;55.762;38.084;2023-08-01T03:03:22;13.70;;;5.25;;
53010;SDS011;42803;55.762;38.084;2023-08-01T03:05:51;20.50;;;6.20;;
53010;SDS011;42803;55.762;38.084;2023-08-01T03:08:21;14.43;;;5.63;;
53010;SDS011;42803;55.762;38.084;2023-08-01T03:10:50;15.48;;;5.65;;
53010;SDS011;42803;55.762;38.084;2023-08-01T03:13:19;14.20;;;6.43;;
53010;SDS011;42803;55.762;38.084;2023-08-01T03:15:48;22.10;;;6.50;;
53010;SDS011;42803;55.762;38.084;2023-08-01T03:18:17;18.00;;;5.93;;
53010;SDS011;42803;55.762;38.084;2023-08-01T03:20:50;18.45;;;6.05;;
53010;SDS011;42803;55.762;38.084;2023-08-01T03:23:20;19.50;;;5.90;;
53010;SDS011;42803;55.762;38.084;2023-08-01T03:25:49;17.55;;;6.13;;
53010;SDS011;42803;55.762;38.084;2023-08-01T03:28:18;14.20;;;5.82;;
53010;SDS011;42803;55.762;38.084;2023-08-01T03:30:47;17.55;;;5.68;;
53010;SDS011;42803;55.762;38.084;2023-08-01T03:33:17;18.05;;;6.30;;
53010;SDS011;42803;55.762;38.084;2023-08-01T03:35:46;15.40;;;5.50;;
53010;SDS011;42803;55.762;38.084;2023-08-01T03:38:17;17.13;;;6.55;;
53010;SDS011;42803;55.762;38.084;2023-08-01T03:40:46;18.40;;;6.50;;
53010;SDS011;42803;55.762;38.084;2023-08-01T03:43:15;15.65;;;6.88;;
53010;SDS011;42803;55.762;38.084;2023-08-01T03:45:44;19.80;;;6.75;;
53010;SDS011;42803;55.762;38.084;2023-08-01T03:48:13;16.25;;;6.25;;
53010;SDS011;42803;55.762;38.084;2023-08-01T03:50:43;21.30;;;6.50;;
53010;SDS011;42803;55.762;38.084;2023-08-01T03:53:12;12.65;;;5.88;;
53010;SDS011;42803;55.762;38.084;2023-08-01T03:55:43;23.13;;;6.38;;
53010;SDS011;42803;55.762;38.084;2023-08-01T03:58:13;22.65;;;6.47;;
53010;SDS011;42803;55.762;38.084;2023-08-01T04:00:42;18.50;;;7.22;;
53010;SDS011;42803;55.762;38.084;2023-08-01T04:03:11;21.27;;;5.88;;
53010;SDS011;42803;55.762;38.084;2023-08-01T04:05:40;19.70;;;6.85;;
53010;SDS011;42803;55.762;38.084;2023-08-01T04:08:10;16.00;;;6.15;;
53010;SDS011;42803;55.762;38.084;2023-08-01T04:10:40;19.15;;;6.82;;
53010;SDS011;42803;55.762;38.084;2023-08-01T04:13:11;16.90;;;6.90;;
53010;SDS011;42803;55.762;38.084;2023-08-01T04:15:40;17.98;;;6.65;;
53010;SDS011;42803;55.762;38.084;2023-08-01T04:18:09;15.13;;;6.88;;
53010;SDS011;42803;55.762;38.084;2023-08-01T04:20:38;19.63;;;6.70;;
53010;SDS011;42803;55.762;38.084;2023-08-01T04:23:07;19.27;;;7.03;;
53010;SDS011;42803;55.762;38.084;2023-08-01T04:25:36;24.00;;;8.20;;
53010;SDS011;42803;55.762;38.084;2023-08-01T04:28:05;19.75;;;8.48;;
53010;SDS011;42803;55.762;38.084;2023-08-01T04:30:35;22.63;;;8.50;;
53010;SDS011;42803;55.762;38.084;2023-08-01T04:33:05;19.20;;;7.57;;
53010;SDS011;42803;55.762;38.084;2023-08-01T04:35:34;24.15;;;8.50;;
53010;SDS011;42803;55.762;38.084;2023-08-01T04:38:03;19.67;;;7.97;;
53010;SDS011;42803;55.762;38.084;2023-08-01T04:40:35;18.88;;;8.90;;
53010;SDS011;42803;55.762;38.084;2023-08-01T04:43:04;22.17;;;8.95;;
53010;SDS011;42803;55.762;38.084;2023-08-01T04:45:36;20.70;;;9.27;;
53010;SDS011;42803;55.762;38.084;2023-08-01T04:48:05;17.00;;;8.07;;
53010;SDS011;42803;55.762;38.084;2023-08-01T04:50:34;16.25;;;7.40;;
53010;SDS011;42803;55.762;38.084;2023-08-01T04:53:03;18.13;;;6.85;;
53010;SDS011;42803;55.762;38.084;2023-08-01T04:55:33;17.70;;;7.28;;
53010;SDS011;42803;55.762;38.084;2023-08-01T04:58:02;14.65;;;8.27;;
53010;SDS011;42803;55.762;38.084;2023-08-01T05:00:31;13.75;;;6.38;;
53010;SDS011;42803;55.762;38.084;2023-08-01T05:03:02;16.73;;;6.40;;
53010;SDS011;42803;55.762;38.084;2023-08-01T05:05:31;18.95;;;7.15;;
53010;SDS011;42803;55.762;38.084;2023-08-01T05:08:00;13.80;;;6.95;;
53010;SDS011;42803;55.762;38.084;2023-08-01T05:10:29;13.45;;;5.97;;
53010;SDS011;42803;55.762;38.084;2023-08-01T05:12:58;15.68;;;6.22;;
53010;SDS011;42803;55.762;38.084;2023-08-01T05:15:27;16.17;;;6.00;;
53010;SDS011;42803;55.762;38.084;2023-08-01T05:17:58;17.83;;;5.75;;
53010;SDS011;42803;55.762;38.084;2023-08-01T05:20:28;17.55;;;6.32;;
53010;SDS011;42803;55.762;38.084;2023-08-01T05:23:01;16.65;;;5.50;;
53010;SDS011;42803;55.762;38.084;2023-08-01T05:25:30;12.13;;;5.32;;
53010;SDS011;42803;55.762;38.084;2023-08-01T05:27:59;6.75;;;4.28;;
53010;SDS011;42803;55.762;38.084;2023-08-01T05:30:28;9.70;;;4.50;;
53010;SDS011;42803;55.762;38.084;2023-08-01T05:32:57;16.35;;;4.60;;
53010;SDS011;42803;55.762;38.084;2023-08-01T05:35:26;7.35;;;3.55;;
53010;SDS011;42803;55.762;38.084;2023-08-01T05:37:56;8.20;;;4.22;;
53010;SDS011;42803;55.762;38.084;2023-08-01T05:40:27;12.07;;;4.57;;
53010;SDS011;42803;55.762;38.084;2023-08-01T05:42:56;8.50;;;4.28;;
53010;SDS011;42803;55.762;38.084;2023-08-01T05:45:25;9.77;;;4.45;;
53010;SDS011;42803;55.762;38.084;2023-08-01T05:47:54;9.68;;;4.20;;
53010;SDS011;42803;55.762;38.084;2023-08-01T05:50:23;6.65;;;3.83;;
53010;SDS011;42803;55.762;38.084;2023-08-01T05:52:52;8.25;;;3.83;;
53010;SDS011;42803;55.762;38.084;2023-08-01T05:55:23;10.55;;;3.92;;
53010;SDS011;42803;55.762;38.084;2023-08-01T05:57:52;5.10;;;2.80;;
53010;SDS011;42803;55.762;38.084;2023-08-01T06:00:21;10.00;;;3.50;;
53010;SDS011;42803;55.762;38.084;2023-08-01T06:02:50;5.32;;;3.47;;
53010;SDS011;42803;55.762;38.084;2023-08-01T06:05:20;5.43;;;2.53;;
53010;SDS011;42803;55.762;38.084;2023-08-01T06:07:49;6.70;;;2.33;;
53010;SDS011;42803;55.762;38.084;2023-08-01T06:10:18;4.20;;;2.97;;
53010;SDS011;42803;55.762;38.084;2023-08-01T06:12:48;5.32;;;3.40;;
53010;SDS011;42803;55.762;38.084;2023-08-01T06:15:18;5.90;;;2.90;;
53010;SDS011;42803;55.762;38.084;2023-08-01T06:17:48;7.80;;;3.33;;
53010;SDS011;42803;55.762;38.084;2023-08-01T06:20:17;5.35;;;3.40;;
53010;SDS011;42803;55.762;38.084;2023-08-01T06:22:46;5.68;;;2.85;;
53010;SDS011;42803;55.762;38.084;2023-08-01T06:25:15;4.82;;;3.22;;
53010;SDS011;42803;55.762;38.084;2023-08-01T06:27:44;6.00;;;3.00;;
53010;SDS011;42803;55.762;38.084;2023-08-01T06:30:15;7.70;;;2.90;;
53010;SDS011;42803;55.762;38.084;2023-08-01T06:32:44;4.22;;;2.78;;
53010;SDS011;42803;55.762;38.084;2023-08-01T06:35:13;6.78;;;3.25;;
53010;SDS011;42803;55.762;38.084;2023-08-01T06:37:42;8.73;;;3.00;;
53010;SDS011;42803;55.762;38.084;2023-08-01T06:40:11;4.75;;;2.90;;
53010;SDS011;42803;55.762;38.084;2023-08-01T06:42:41;6.43;;;2.90;;
53010;SDS011;42803;55.762;38.084;2023-08-01T06:45:10;6.07;;;3.08;;
53010;SDS011;42803;55.762;38.084;2023-08-01T06:47:40;4.20;;;3.08;;
53010;SDS011;42803;55.762;38.084;2023-08-01T06:50:10;6.05;;;3.10;;
53010;SDS011;42803;55.762;38.084;2023-08-01T06:52:39;9.63;;;2.83;;
53010;SDS011;42803;55.762;38.084;2023-08-01T06:55:08;5.63;;;3.08;;
53010;SDS011;42803;55.762;38.084;2023-08-01T06:57:37;5.07;;;2.97;;
53010;SDS011;42803;55.762;38.084;2023-08-01T07:00:06;5.45;;;3.10;;
53010;SDS011;42803;55.762;38.084;2023-08-01T07:02:36;4.75;;;2.80;;
53010;SDS011;42803;55.762;38.084;2023-08-01T07:05:07;4.68;;;3.20;;
53010;SDS011;42803;55.762;38.084;2023-08-01T07:07:36;5.20;;;2.67;;
53010;SDS011;42803;55.762;38.084;2023-08-01T07:10:06;4.82;;;2.63;;
53010;SDS011;42803;55.762;38.084;2023-08-01T07:12:36;5.15;;;2.60;;
53010;SDS011;42803;55.762;38.084;2023-08-01T07:15:05;5.20;;;2.35;;
53010;SDS011;42803;55.762;38.084;2023-08-01T07:17:35;4.65;;;2.60;;
53010;SDS011;42803;55.762;38.084;2023-08-01T07:20:05;3.67;;;2.65;;
53010;SDS011;42803;55.762;38.084;2023-08-01T07:22:36;4.82;;;2.72;;
53010;SDS011;42803;55.762;38.084;2023-08-01T07:25:05;3.10;;;2.38;;
53010;SDS011;42803;55.762;38.084;2023-08-01T07:27:38;3.75;;;2.47;;
53010;SDS011;42803;55.762;38.084;2023-08-01T07:30:07;5.63;;;2.50;;
53010;SDS011;42803;55.762;38.084;2023-08-01T07:32:38;3.80;;;2.35;;
53010;SDS011;42803;55.762;38.084;2023-08-01T07:35:11;3.33;;;2.30;;
53010;SDS011;42803;55.762;38.084;2023-08-01T07:37:40;6.20;;;2.53;;
53010;SDS011;42803;55.762;38.084;2023-08-01T07:40:09;4.47;;;2.53;;
53010;SDS011;42803;55.762;38.084;2023-08-01T07:42:39;2.63;;;2.22;;
53010;SDS011;42803;55.762;38.084;2023-08-01T07:45:08;4.65;;;2.30;;
53010;SDS011;42803;55.762;38.084;2023-08-01T07:47:38;4.18;;;2.25;;
53010;SDS011;42803;55.762;38.084;2023-08-01T07:50:07;3.78;;;2.40;;
53010;SDS011;42803;55.762;38.084;2023-08-01T07:52:38;6.75;;;2.28;;
53010;SDS011;42803;55.762;38.084;2023-08-01T07:55:08;7.28;;;2.65;;
53010;SDS011;42803;55.762;38.084;2023-08-01T07:57:37;4.15;;;2.45;;
53010;SDS011;42803;55.762;38.084;2023-08-01T08:00:06;5.13;;;2.63;;
53010;SDS011;42803;55.762;38.084;2023-08-01T08:02:40;4.80;;;2.50;;
53010;SDS011;42803;55.762;38.084;2023-08-01T08:05:12;5.45;;;2.38;;
53010;SDS011;42803;55.762;38.084;2023-08-01T08:07:43;3.17;;;2.40;;
53010;SDS011;42803;55.762;38.084;2023-08-01T08:10:12;3.03;;;2.22;;
53010;SDS011;42803;55.762;38.084;2023-08-01T08:12:41;5.50;;;2.22;;
53010;SDS011;42803;55.762;38.084;2023-08-01T08:15:10;3.42;;;2.30;;
53010;SDS011;42803;55.762;38.084;2023-08-01T08:17:40;2.70;;;2.20;;
53010;SDS011;42803;55.762;38.084;2023-08-01T08:20:10;3.53;;;2.42;;
53010;SDS011;42803;55.762;38.084;2023-08-01T08:22:39;2.67;;;2.05;;
53010;SDS011;42803;55.762;38.084;2023-08-01T08:25:09;5.50;;;2.05;;
53010;SDS011;42803;55.762;38.084;2023-08-01T08:27:38;2.85;;;2.10;;
53010;SDS011;42803;55.762;38.084;2023-08-01T08:30:08;4.18;;;2.38;;
53010;SDS011;42803;55.762;38.084;2023-08-01T08:32:38;4.30;;;2.10;;
53010;SDS011;42803;55.762;38.084;2023-08-01T08:35:07;5.05;;;2.30;;
53010;SDS011;42803;55.762;38.084;2023-08-01T08:37:36;2.72;;;2.25;;
53010;SDS011;42803;55.762;38.084;2023-08-01T08:40:06;3.05;;;2.05;;
53010;SDS011;42803;55.762;38.084;2023-08-01T08:42:37;2.50;;;1.90;;
53010;SDS011;42803;55.762;38.084;2023-08-01T08:45:08;3.63;;;2.08;;
53010;SDS011;42803;55.762;38.084;2023-08-01T08:47:38;6.35;;;2.55;;
53010;SDS011;42803;55.762;38.084;2023-08-01T08:50:10;6.00;;;2.25;;
53010;SDS011;42803;55.762;38.084;2023-08-01T08:52:41;2.60;;;2.40;;
53010;SDS011;42803;55.762;38.084;2023-08-01T08:55:10;4.20;;;2.03;;
53010;SDS011;42803;55.762;38.084;2023-08-01T08:57:41;4.70;;;2.40;;
53010;SDS011;42803;55.762;38.084;2023-08-01T09:00:14;4.53;;;2.53;;
53010;SDS011;42803;55.762;38.084;2023-08-01T09:02:49;4.30;;;2.50;;
53010;SDS011;42803;55.762;38.084;2023-08-01T09:05:18;4.18;;;2.20;;
53010;SDS011;42803;55.762;38.084;2023-08-01T09:07:50;4.93;;;2.30;;
53010;SDS011;42803;55.762;38.084;2023-08-01T09:10:23;2.90;;;2.40;;
53010;SDS011;42803;55.762;38.084;2023-08-01T09:12:53;3.60;;;2.30;;
53010;SDS011;42803;55.762;38.084;2023-08-01T09:15:23;6.72;;;2.38;;
53010;SDS011;42803;55.762;38.084;2023-08-01T09:17:56;3.17;;;2.63;;
53010;SDS011;42803;55.762;38.084;2023-08-01T09:20:28;7.03;;;2.42;;
53010;SDS011;42803;55.762;38.084;2023-08-01T09:22:57;2.88;;;2.13;;
53010;SDS011;42803;55.762;38.084;2023-08-01T09:25:30;4.40;;;2.13;;
53010;SDS011;42803;55.762;38.084;2023-08-01T09:30:31;6.75;;;2.42;;
53010;SDS011;42803;55.762;38.084;2023-08-01T09:33:00;5.25;;;2.50;;
53010;SDS011;42803;55.762;38.084;2023-08-01T09:35:29;4.03;;;2.50;;
53010;SDS011;42803;55.762;38.084;2023-08-01T09:38:07;8.20;;;2.63;;
53010;SDS011;42803;55.762;38.084;2023-08-01T09:40:36;4.40;;;2.70;;
53010;SDS011;42803;55.762;38.084;2023-08-01T09:43:07;7.00;;;2.83;;
53010;SDS011;42803;55.762;38.084;2023-08-01T09:45:36;5.75;;;2.53;;
53010;SDS011;42803;55.762;38.084;2023-08-01T09:48:05;5.60;;;2.33;;
53010;SDS011;42803;55.762;38.084;2023-08-01T10:09:03;5.40;;;2.85;;
53010;SDS011;42803;55.762;38.084;2023-08-01T10:11:34;4.18;;;2.70;;
53010;SDS011;42803;55.762;38.084;2023-08-01T10:14:06;3.45;;;2.70;;
53010;SDS011;42803;55.762;38.084;2023-08-01T10:16:36;6.72;;;3.30;;
53010;SDS011;42803;55.762;38.084;2023-08-01T10:19:07;6.63;;;3.22;;
53010;SDS011;42803;55.762;38.084;2023-08-01T10:21:39;6.25;;;2.97;;
53010;SDS011;42803;55.762;38.084;2023-08-01T10:24:10;4.40;;;2.75;;
53010;SDS011;42803;55.762;38.084;2023-08-01T10:26:40;6.18;;;2.63;;
53010;SDS011;42803;55.762;38.084;2023-08-01T10:29:14;6.40;;;2.58;;
53010;SDS011;42803;55.762;38.084;2023-08-01T10:31:50;4.13;;;2.55;;
53010;SDS011;42803;55.762;38.084;2023-08-01T10:34:20;4.80;;;2.70;;
53010;SDS011;42803;55.762;38.084;2023-08-01T10:36:53;7.53;;;2.60;;
53010;SDS011;42803;55.762;38.084;2023-08-01T10:39:23;5.00;;;2.92;;
53010;SDS011;42803;55.762;38.084;2023-08-01T10:41:57;6.40;;;2.75;;
53010;SDS011;42803;55.762;38.084;2023-08-01T10:44:28;4.78;;;2.72;;
53010;SDS011;42803;55.762;38.084;2023-08-01T10:46:59;5.95;;;2.78;;
53010;SDS011;42803;55.762;38.084;2023-08-01T10:49:33;5.25;;;3.10;;
53010;SDS011;42803;55.762;38.084;2023-08-01T10:52:04;5.03;;;3.00;;
53010;SDS011;42803;55.762;38.084;2023-08-01T10:54:45;7.28;;;2.88;;
53010;SDS011;42803;55.762;38.084;2023-08-01T10:57:15;6.82;;;3.80;;
53010;SDS011;42803;55.762;38.084;2023-08-01T10:59:47;9.65;;;3.38;;
53010;SDS011;42803;55.762;38.084;2023-08-01T11:02:19;7.40;;;2.80;;
53010;SDS011;42803;55.762;38.084;2023-08-01T11:04:56;5.03;;;3.08;;
53010;SDS011;42803;55.762;38.084;2023-08-01T11:07:26;5.35;;;3.08;;
53010;SDS011;42803;55.762;38.084;2023-08-01T11:10:05;7.75;;;2.95;;
53010;SDS011;42803;55.762;38.084;2023-08-01T11:12:37;7.13;;;2.70;;
53010;SDS011;42803;55.762;38.084;2023-08-01T11:15:09;4.93;;;2.95;;
53010;SDS011;42803;55.762;38.084;2023-08-01T11:17:40;4.68;;;2.75;;
53010;SDS011;42803;55.762;38.084;2023-08-01T11:20:11;9.82;;;3.00;;
53010;SDS011;42803;55.762;38.084;2023-08-01T11:22:49;6.93;;;2.58;;
53010;SDS011;42803;55.762;38.084;2023-08-01T11:25:19;5.57;;;2.95;;
53010;SDS011;42803;55.762;38.084;2023-08-01T11:28:03;2.83;;;2.50;;
53010;SDS011;42803;55.762;38.084;2023-08-01T11:30:36;5.95;;;3.10;;
53010;SDS011;42803;55.762;38.084;2023-08-01T11:33:13;8.57;;;3.03;;
53010;SDS011;42803;55.762;38.084;2023-08-01T11:35:43;4.47;;;2.40;;
53010;SDS011;42803;55.762;38.084;2023-08-01T11:38:12;3.90;;;2.45;;
53010;SDS011;42803;55.762;38.084;2023-08-01T11:40:41;4.10;;;2.45;;
53010;SDS011;42803;55.762;38.084;2023-08-01T11:43:11;3.03;;;2.70;;
53010;SDS011;42803;55.762;38.084;2023-08-01T11:45:49;3.72;;;2.63;;
53010;SDS011;42803;55.762;38.084;2023-08-01T11:48:18;6.15;;;2.47;;
53010;SDS011;42803;55.762;38.084;2023-08-01T11:50:55;4.72;;;2.85;;
53010;SDS011;42803;55.762;38.084;2023-08-01T11:53:25;7.32;;;2.90;;
53010;SDS011;42803;55.762;38.084;2023-08-01T11:55:55;4.50;;;3.33;;
53010;SDS011;42803;55.762;38.084;2023-08-01T11:58:28;5.18;;;3.33;;
53010;SDS011;42803;55.762;38.084;2023-08-01T12:01:05;9.30;;;3.05;;
53010;SDS011;42803;55.762;38.084;2023-08-01T12:03:42;4.38;;;2.72;;
53010;SDS011;42803;55.762;38.084;2023-08-01T12:06:12;4.43;;;3.03;;
53010;SDS011;42803;55.762;38.084;2023-08-01T12:08:42;3.95;;;2.50;;
53010;SDS011;42803;55.762;38.084;2023-08-01T12:11:19;3.92;;;2.40;;
53010;SDS011;42803;55.762;38.084;2023-08-01T12:14:00;3.75;;;2.38;;
53010;SDS011;42803;55.762;38.084;2023-08-01T12:16:31;6.45;;;2.70;;
53010;SDS011;42803;55.762;38.084;2023-08-01T12:19:00;3.15;;;2.70;;
53010;SDS011;42803;55.762;38.084;2023-08-01T12:21:30;5.82;;;2.83;;
53010;SDS011;42803;55.762;38.084;2023-08-01T12:24:00;6.10;;;3.00;;
53010;SDS011;42803;55.762;38.084;2023-08-01T12:26:30;4.28;;;2.50;;
53010;SDS011;42803;55.762;38.084;2023-08-01T12:29:00;5.60;;;2.75;;
53010;SDS011;42803;55.762;38.084;2023-08-01T12:31:30;3.10;;;2.47;;
53010;SDS011;42803;55.762;38.084;2023-08-01T12:34:00;4.10;;;2.67;;
53010;SDS011;42803;55.762;38.084;2023-08-01T12:36:29;5.65;;;2.55;;
53010;SDS011;42803;55.762;38.084;2023-08-01T12:38:58;4.30;;;2.50;;
53010;SDS011;42803;55.762;38.084;2023-08-01T12:41:29;3.15;;;2.67;;
53010;SDS011;42803;55.762;38.084;2023-08-01T12:43:58;4.68;;;2.38;;
53010;SDS011;42803;55.762;38.084;2023-08-01T12:46:27;2.70;;;2.40;;
53010;SDS011;42803;55.762;38.084;2023-08-01T12:48:58;4.70;;;2.53;;
53010;SDS011;42803;55.762;38.084;2023-08-01T12:51:27;5.57;;;3.03;;
53010;SDS011;42803;55.762;38.084;2023-08-01T12:53:56;3.72;;;2.40;;
53010;SDS011;42803;55.762;38.084;2023-08-01T12:56:26;7.28;;;2.50;;
53010;SDS011;42803;55.762;38.084;2023-08-01T12:58:55;4.95;;;2.67;;
53010;SDS011;42803;55.762;38.084;2023-08-01T13:01:24;5.25;;;2.97;;
53010;SDS011;42803;55.762;38.084;2023-08-01T13:03:54;5.75;;;2.20;;
53010;SDS011;42803;55.762;38.084;2023-08-01T13:06:24;4.90;;;2.20;;
53010;SDS011;42803;55.762;38.084;2023-08-01T13:08:54;5.03;;;2.42;;
53010;SDS011;42803;55.762;38.084;2023-08-01T13:11:23;3.53;;;2.00;;
53010;SDS011;42803;55.762;38.084;2023-08-01T13:13:52;5.57;;;2.17;;
53010;SDS011;42803;55.762;38.084;2023-08-01T13:16:21;5.20;;;1.77;;
53010;SDS011;42803;55.762;38.084;2023-08-01T13:18:50;5.07;;;2.35;;
53010;SDS011;42803;55.762;38.084;2023-08-01T13:21:19;6.90;;;2.50;;
53010;SDS011;42803;55.762;38.084;2023-08-01T13:23:52;8.65;;;2.67;;
53010;SDS011;42803;55.762;38.084;2023-08-01T13:26:21;3.80;;;2.50;;
53010;SDS011;42803;55.762;38.084;2023-08-01T13:28:50;5.00;;;2.45;;
53010;SDS011;42803;55.762;38.084;2023-08-01T13:31:19;2.42;;;1.95;;
53010;SDS011;42803;55.762;38.084;2023-08-01T13:33:48;5.75;;;2.33;;
53010;SDS011;42803;55.762;38.084;2023-08-01T13:36:18;3.28;;;1.80;;
53010;SDS011;42803;55.762;38.084;2023-08-01T13:38:47;3.50;;;2.20;;
53010;SDS011;42803;55.762;38.084;2023-08-01T13:41:17;3.05;;;2.33;;
53010;SDS011;42803;55.762;38.084;2023-08-01T13:43:48;2.78;;;2.30;;
53010;SDS011;42803;55.762;38.084;2023-08-01T13:46:18;6.47;;;2.38;;
53010;SDS011;42803;55.762;38.084;2023-08-01T13:48:56;5.13;;;2.40;;
53010;SDS011;42803;55.762;38.084;2023-08-01T13:51:25;3.42;;;1.95;;
53010;SDS011;42803;55.762;38.084;2023-08-01T13:53:58;3.15;;;2.08;;
53010;SDS011;42803;55.762;38.084;2023-08-01T13:56:29;3.67;;;1.90;;
53010;SDS011;42803;55.762;38.084;2023-08-01T13:58:58;4.18;;;1.80;;
53010;SDS011;42803;55.762;38.084;2023-08-01T14:01:27;3.63;;;2.45;;
53010;SDS011;42803;55.762;38.084;2023-08-01T14:03:56;3.05;;;2.30;;
53010;SDS011;42803;55.762;38.084;2023-08-01T14:06:25;3.40;;;2.05;;
53010;SDS011;42803;55.762;38.084;2023-08-01T14:08:56;3.33;;;2.15;;
53010;SDS011;42803;55.762;38.084;2023-08-01T14:11:25;2.97;;;2.17;;
53010;SDS011;42803;55.762;38.084;2023-08-01T14:13:55;5.00;;;2.30;;
53010;SDS011;42803;55.762;38.084;2023-08-01T14:16:25;3.17;;;2.22;;
53010;SDS011;42803;55.762;38.084;2023-08-01T14:18:54;3.53;;;1.90;;
53010;SDS011;42803;55.762;38.084;2023-08-01T14:21:23;5.68;;;2.13;;
53010;SDS011;42803;55.762;38.084;2023-08-01T14:23:52;2.13;;;1.92;;
53010;SDS011;42803;55.762;38.084;2023-08-01T14:26:21;3.13;;;2.33;;
53010;SDS011;42803;55.762;38.084;2023-08-01T14:28:51;5.90;;;2.05;;
53010;SDS011;42803;55.762;38.084;2023-08-01T14:31:21;3.20;;;1.90;;
53010;SDS011;42803;55.762;38.084;2023-08-01T14:33:50;3.20;;;1.80;;
53010;SDS011;42803;55.762;38.084;2023-08-01T14:36:19;5.88;;;2.13;;
53010;SDS011;42803;55.762;38.084;2023-08-01T14:38:49;5.97;;;1.95;;
53010;SDS011;42803;55.762;38.084;2023-08-01T14:41:24;5.43;;;2.10;;
53010;SDS011;42803;55.762;38.084;2023-08-01T14:44:13;2.42;;;1.85;;
53010;SDS011;42803;55.762;38.084;2023-08-01T14:46:44;3.70;;;2.20;;
53010;SDS011;42803;55.762;38.084;2023-08-01T14:49:13;2.05;;;1.58;;
53010;SDS011;42803;55.762;38.084;2023-08-01T14:51:42;4.28;;;2.10;;
53010;SDS011;42803;55.762;38.084;2023-08-01T14:54:11;4.07;;;2.08;;
53010;SDS011;42803;55.762;38.084;2023-08-01T14:56:48;3.53;;;2.00;;
53010;SDS011;42803;55.762;38.084;2023-08-01T14:59:18;3.15;;;2.10;;
53010;SDS011;42803;55.762;38.084;2023-08-01T15:01:50;4.22;;;2.17;;
53010;SDS011;42803;55.762;38.084;2023-08-01T15:04:19;2.55;;;2.13;;
53010;SDS011;42803;55.762;38.084;2023-08-01T15:06:48;5.05;;;2.33;;
53010;SDS011;42803;55.762;38.084;2023-08-01T15:09:18;3.67;;;1.77;;